createdAt,value
2019-02-24T00:01:45.049Z,73.50
2019-02-24T00:04:19.342Z,73.40
2019-02-24T00:06:56.146Z,73.10
2019-02-24T00:09:32.500Z,73.00
2019-02-24T00:12:07.214Z,72.90
2019-02-24T00:14:40.983Z,72.40
2019-02-24T00:17:17.462Z,72.00
2019-02-24T00:19:52.812Z,71.90
2019-02-24T00:22:31.038Z,71.70
2019-02-24T00:25:06.375Z,71.60
2019-02-24T00:27:42.922Z,71.30
2019-02-24T00:30:16.536Z,71.30
2019-02-24T00:32:55.692Z,71.30
2019-02-24T00:35:35.083Z,71.70
2019-02-24T00:38:09.391Z,71.50
2019-02-24T00:40:43.153Z,71.20
2019-02-24T00:43:19.497Z,70.80
2019-02-24T00:45:54.228Z,70.60
2019-02-24T00:48:28.712Z,70.50
2019-02-24T00:51:03.811Z,70.40
2019-02-24T00:53:38.779Z,70.40
2019-02-24T00:56:13.852Z,70.60
2019-02-24T00:58:48.047Z,70.90
2019-02-24T01:01:22.348Z,70.60
2019-02-24T01:03:58.480Z,70.50
2019-02-24T01:06:32.271Z,70.40
2019-02-24T01:09:10.752Z,70.80
2019-02-24T01:11:45.237Z,70.80
2019-02-24T01:14:18.962Z,71.00
2019-02-24T01:16:55.234Z,71.00
2019-02-24T01:19:30.732Z,70.70
2019-02-24T01:22:06.828Z,70.60
2019-02-24T01:24:41.101Z,70.50
2019-02-24T01:27:13.626Z,70.40
2019-02-24T01:29:47.202Z,70.50
2019-02-24T01:32:22.046Z,70.50
2019-02-24T01:34:56.649Z,70.70
2019-02-24T01:37:30.573Z,70.80
2019-02-24T01:40:05.256Z,70.90
2019-02-24T01:42:39.170Z,70.90
2019-02-24T01:45:13.639Z,70.80
2019-02-24T01:47:47.430Z,70.70
2019-02-24T01:50:21.312Z,70.80
2019-02-24T01:52:55.802Z,70.40
2019-02-24T01:55:29.473Z,70.00
2019-02-24T01:58:05.946Z,69.60
2019-02-24T02:00:41.068Z,69.30
2019-02-24T02:03:15.291Z,68.80
2019-02-24T02:06:08.590Z,68.40
2019-02-24T02:08:54.863Z,68.30
2019-02-24T02:11:30.580Z,68.20
2019-02-24T02:14:05.258Z,68.20
2019-02-24T02:16:39.805Z,67.90
2019-02-24T02:19:14.060Z,67.70
2019-02-24T02:21:47.478Z,67.50
2019-02-24T02:24:21.667Z,67.50
2019-02-24T02:26:56.694Z,67.50
2019-02-24T02:29:31.015Z,67.40
2019-02-24T02:32:05.316Z,67.50
2019-02-24T02:34:40.465Z,67.40
2019-02-24T02:37:19.139Z,67.30
2019-02-24T02:39:53.184Z,67.40
2019-02-24T02:42:27.325Z,67.30
2019-02-24T02:45:02.290Z,67.40
2019-02-24T02:47:36.603Z,67.70
2019-02-24T02:50:11.194Z,67.40
2019-02-24T02:52:45.825Z,67.30
2019-02-24T02:55:19.841Z,67.10
2019-02-24T02:57:54.120Z,67.20
2019-02-24T03:00:35.617Z,67.10
2019-02-24T03:03:10.302Z,67.30
2019-02-24T03:05:55.346Z,67.30
2019-02-24T03:08:51.707Z,67.40
2019-02-24T03:11:25.497Z,66.80
2019-02-24T03:14:00.467Z,66.40
2019-02-24T03:16:34.685Z,66.30
2019-02-24T03:19:09.426Z,66.30
2019-02-24T03:21:43.530Z,66.40
2019-02-24T03:24:17.971Z,66.40
2019-02-24T03:26:51.701Z,66.50
2019-02-24T03:29:27.096Z,66.50
2019-02-24T03:32:01.238Z,66.50
2019-02-24T03:34:34.846Z,66.30
2019-02-24T03:37:09.527Z,66.30
2019-02-24T03:39:44.390Z,66.80
2019-02-24T03:42:18.726Z,66.60
2019-02-24T03:44:53.696Z,66.40
2019-02-24T03:47:27.122Z,66.40
2019-02-24T03:50:01.019Z,66.20
2019-02-24T03:52:36.686Z,66.50
2019-02-24T03:55:10.643Z,66.40
2019-02-24T03:57:45.346Z,66.50
2019-02-24T04:00:19.484Z,66.40
2019-02-24T04:02:53.677Z,66.70
2019-02-24T04:05:28.031Z,66.80
2019-02-24T04:08:02.396Z,66.70
2019-02-24T04:10:36.896Z,67.00
2019-02-24T04:13:09.912Z,66.80
2019-02-24T04:15:43.635Z,67.20
2019-02-24T04:18:17.014Z,67.50
2019-02-24T04:20:49.484Z,67.50
2019-02-24T04:23:22.432Z,67.30
2019-02-24T04:25:54.629Z,67.00
2019-02-24T04:28:27.312Z,67.30
2019-02-24T04:31:01.150Z,67.30
2019-02-24T04:33:33.166Z,67.50
2019-02-24T04:36:08.360Z,67.70
2019-02-24T04:38:40.329Z,67.70
2019-02-24T04:41:14.805Z,67.50
2019-02-24T04:43:50.370Z,67.80
2019-02-24T04:46:22.823Z,67.70
2019-02-24T04:48:54.825Z,67.80
2019-02-24T04:51:27.542Z,68.20
2019-02-24T04:54:01.273Z,68.40
2019-02-24T04:56:34.209Z,68.50
2019-02-24T04:59:08.706Z,68.70
2019-02-24T05:01:40.625Z,68.50
2019-02-24T05:04:13.023Z,68.60
2019-02-24T05:06:46.110Z,68.70
2019-02-24T05:09:17.983Z,68.70
2019-02-24T05:11:50.493Z,68.90
2019-02-24T05:14:23.079Z,68.90
2019-02-24T05:16:55.739Z,69.00
2019-02-24T05:19:27.693Z,69.20
2019-02-24T05:22:00.948Z,69.20
2019-02-24T05:24:32.848Z,69.20
2019-02-24T05:27:04.903Z,68.70
2019-02-24T05:29:45.846Z,68.80
2019-02-24T05:32:13.308Z,68.90
2019-02-24T05:34:45.690Z,69.30
2019-02-24T05:37:18.681Z,69.40
2019-02-24T05:39:52.217Z,69.60
2019-02-24T05:42:26.284Z,69.60
2019-02-24T05:44:58.634Z,69.20
2019-02-24T05:47:32.442Z,69.30
2019-02-24T05:50:04.685Z,69.40
2019-02-24T05:52:37.007Z,69.20
2019-02-24T05:55:09.502Z,69.40
2019-02-24T05:57:41.994Z,69.40
2019-02-24T06:00:14.783Z,69.30
2019-02-24T06:02:46.740Z,69.40
2019-02-24T06:05:19.103Z,69.00
2019-02-24T06:07:51.111Z,68.80
2019-02-24T06:10:23.861Z,68.90
2019-02-24T06:12:56.373Z,69.20
2019-02-24T06:15:27.965Z,68.60
2019-02-24T06:17:59.928Z,68.40
2019-02-24T06:20:31.721Z,68.30
2019-02-24T06:23:04.062Z,68.40
2019-02-24T06:25:38.367Z,68.40
2019-02-24T06:28:10.517Z,68.30
2019-02-24T06:30:42.482Z,68.10
2019-02-24T06:33:14.751Z,67.70
2019-02-24T06:35:46.911Z,67.60
2019-02-24T06:38:20.539Z,67.60
2019-02-24T06:40:57.704Z,67.50
2019-02-24T06:43:30.900Z,67.20
2019-02-24T06:46:03.466Z,67.00
2019-02-24T06:48:38.148Z,66.70
2019-02-24T06:51:12.894Z,66.50
2019-02-24T06:53:45.105Z,66.40
2019-02-24T06:56:21.113Z,66.10
2019-02-24T06:58:53.172Z,66.00
2019-02-24T07:01:28.816Z,65.70
2019-02-24T07:04:01.565Z,65.60
2019-02-24T07:06:35.322Z,65.30
2019-02-24T07:09:08.698Z,65.20
2019-02-24T07:11:42.058Z,64.60
2019-02-24T07:14:14.481Z,64.60
2019-02-24T07:16:47.770Z,64.10
2019-02-24T07:19:21.758Z,63.70
2019-02-24T07:21:54.682Z,63.30
2019-02-24T07:24:28.245Z,63.00
2019-02-24T07:27:05.452Z,63.00
2019-02-24T07:29:37.976Z,62.60
2019-02-24T07:32:10.439Z,62.00
2019-02-24T07:34:42.989Z,61.90
2019-02-24T07:37:35.512Z,61.50
2019-02-24T07:40:10.249Z,61.10
2019-02-24T07:42:43.541Z,60.90
2019-02-24T07:45:17.988Z,60.60
2019-02-24T07:47:50.276Z,60.30
2019-02-24T07:50:26.151Z,59.40
2019-02-24T07:52:59.787Z,58.80
2019-02-24T07:55:34.622Z,58.20
2019-02-24T07:58:06.982Z,58.20
2019-02-24T08:00:43.477Z,58.40
2019-02-24T08:03:17.576Z,57.70
2019-02-24T08:05:52.816Z,57.50
2019-02-24T08:08:25.779Z,57.80
2019-02-24T08:10:58.413Z,57.60
2019-02-24T08:13:31.240Z,57.40
2019-02-24T08:16:04.134Z,57.10
2019-02-24T08:18:36.786Z,55.90
2019-02-24T08:21:10.053Z,55.30
2019-02-24T08:23:43.535Z,55.80
2019-02-24T08:26:16.600Z,56.60
2019-02-24T08:28:51.700Z,56.30
2019-02-24T08:31:24.971Z,57.00
2019-02-24T08:33:58.247Z,56.70
2019-02-24T08:36:31.017Z,56.60
2019-02-24T08:39:06.427Z,56.10
2019-02-24T08:41:38.991Z,55.10
2019-02-24T08:44:12.936Z,55.50
2019-02-24T08:46:45.111Z,55.20
2019-02-24T08:49:19.140Z,54.90
2019-02-24T08:51:51.811Z,55.10
2019-02-24T08:54:25.418Z,54.30
2019-02-24T08:56:58.500Z,54.60
2019-02-24T08:59:30.972Z,53.70
2019-02-24T09:02:02.962Z,53.70
2019-02-24T09:04:35.292Z,53.40
2019-02-24T09:07:08.549Z,53.50
2019-02-24T09:09:44.632Z,53.60
2019-02-24T09:12:17.991Z,52.70
2019-02-24T09:14:50.347Z,53.00
2019-02-24T09:17:26.848Z,53.70
2019-02-24T09:20:00.024Z,52.90
2019-02-24T09:22:32.527Z,52.60
2019-02-24T09:25:04.923Z,52.70
2019-02-24T09:27:37.152Z,52.70
2019-02-24T09:30:10.138Z,52.20
2019-02-24T09:32:43.113Z,52.20
2019-02-24T09:35:15.319Z,52.50
2019-02-24T09:37:49.299Z,52.00
2019-02-24T09:40:22.299Z,51.80
2019-02-24T09:42:54.673Z,51.30
2019-02-24T09:45:27.447Z,51.70
2019-02-24T09:47:59.318Z,51.80
2019-02-24T09:50:31.189Z,51.80
2019-02-24T09:53:04.006Z,52.10
2019-02-24T09:55:35.913Z,52.00
2019-02-24T09:58:08.687Z,51.60
2019-02-24T10:00:46.777Z,51.30
2019-02-24T10:03:19.255Z,51.80
2019-02-24T10:05:50.693Z,51.70
2019-02-24T10:08:25.023Z,51.60
2019-02-24T10:10:56.970Z,50.70
2019-02-24T10:13:29.500Z,50.80
2019-02-24T10:16:04.594Z,51.40
2019-02-24T10:18:36.723Z,50.40
2019-02-24T10:21:08.385Z,50.40
2019-02-24T10:23:43.408Z,50.80
2019-02-24T10:26:16.214Z,49.70
2019-02-24T10:28:54.932Z,49.90
2019-02-24T10:31:29.413Z,50.10
2019-02-24T10:34:07.574Z,50.80
2019-02-24T10:36:39.928Z,50.40
2019-02-24T10:39:16.528Z,49.70
2019-02-24T10:41:49.638Z,49.90
2019-02-24T10:44:22.214Z,49.60
2019-02-24T10:46:54.983Z,49.50
2019-02-24T10:49:29.083Z,48.40
2019-02-24T10:52:00.736Z,46.90
2019-02-24T10:54:33.103Z,47.20
2019-02-24T10:57:08.655Z,46.60
2019-02-24T10:59:40.320Z,45.80
2019-02-24T11:02:12.898Z,44.50
2019-02-24T11:04:45.539Z,43.80
2019-02-24T11:07:18.077Z,42.60
2019-02-24T11:09:50.730Z,41.80
2019-02-24T11:12:24.143Z,41.30
2019-02-24T11:14:58.178Z,40.50
2019-02-24T11:17:37.536Z,40.90
2019-02-24T11:20:12.338Z,40.30
2019-02-24T11:22:45.357Z,40.70
2019-02-24T11:25:19.725Z,40.10
2019-02-24T11:27:53.062Z,40.30
2019-02-24T11:30:26.527Z,40.50
2019-02-24T11:32:59.686Z,40.50
2019-02-24T11:35:32.879Z,40.10
2019-02-24T11:38:05.974Z,40.30
2019-02-24T11:40:40.276Z,39.50
2019-02-24T11:43:13.344Z,39.20
2019-02-24T11:45:45.485Z,39.10
2019-02-24T11:48:17.969Z,38.90
2019-02-24T11:50:50.060Z,38.80
2019-02-24T11:53:22.333Z,39.20
2019-02-24T11:55:54.153Z,38.90
2019-02-24T11:58:26.236Z,39.10
2019-02-24T12:00:58.851Z,38.80
2019-02-24T12:03:30.623Z,38.70
2019-02-24T12:06:02.429Z,38.80
2019-02-24T12:08:37.634Z,38.80
2019-02-24T12:11:10.603Z,38.60
2019-02-24T12:13:45.101Z,38.90
2019-02-24T12:16:22.061Z,38.90
2019-02-24T12:18:55.064Z,38.90
2019-02-24T12:21:34.682Z,38.40
2019-02-24T12:24:09.965Z,38.00
2019-02-24T12:26:48.728Z,38.20
2019-02-24T12:29:21.929Z,38.00
2019-02-24T12:31:56.592Z,38.30
2019-02-24T12:34:27.617Z,37.60
2019-02-24T12:37:00.387Z,37.20
2019-02-24T12:39:34.340Z,37.20
2019-02-24T12:42:08.645Z,37.50
2019-02-24T12:44:41.300Z,37.10
2019-02-24T12:47:14.022Z,36.60
2019-02-24T12:49:47.792Z,36.80
2019-02-24T12:52:22.718Z,37.20
2019-02-24T12:54:54.772Z,37.10
2019-02-24T12:57:30.342Z,37.50
2019-02-24T13:00:02.169Z,36.90
2019-02-24T13:02:34.987Z,36.80
2019-02-24T13:05:07.547Z,36.70
2019-02-24T13:07:39.740Z,36.40
2019-02-24T13:10:13.003Z,36.20
2019-02-24T13:12:46.193Z,36.30
2019-02-24T13:15:18.506Z,35.70
2019-02-24T13:17:50.968Z,35.70
2019-02-24T13:20:26.672Z,35.40
2019-02-24T13:23:00.542Z,35.20
2019-02-24T13:25:34.143Z,35.80
2019-02-24T13:28:08.307Z,35.40
2019-02-24T13:30:42.294Z,35.30
2019-02-24T13:33:15.147Z,34.90
2019-02-24T13:35:48.654Z,35.00
2019-02-24T13:38:23.851Z,35.10
2019-02-24T13:40:57.124Z,35.30
2019-02-24T13:43:31.647Z,35.10
2019-02-24T13:46:05.798Z,35.00
2019-02-24T13:48:42.020Z,34.50
2019-02-24T13:51:15.246Z,35.30
2019-02-24T13:53:48.411Z,35.10
2019-02-24T13:56:26.825Z,35.10
2019-02-24T13:58:59.406Z,35.70
2019-02-24T14:01:32.908Z,34.50
2019-02-24T14:04:06.151Z,34.40
2019-02-24T14:06:41.333Z,35.20
2019-02-24T14:09:14.433Z,35.80
2019-02-24T14:11:50.226Z,35.90
2019-02-24T14:14:24.302Z,35.50
2019-02-24T14:16:57.282Z,35.90
2019-02-24T14:19:30.765Z,35.70
2019-02-24T14:22:04.182Z,35.70
2019-02-24T14:24:37.775Z,35.70
2019-02-24T14:27:11.324Z,36.00
2019-02-24T14:29:45.318Z,36.10
2019-02-24T14:32:19.095Z,36.10
2019-02-24T14:34:52.563Z,35.80
2019-02-24T14:37:25.973Z,35.30
2019-02-24T14:40:00.036Z,35.90
2019-02-24T14:42:34.115Z,35.70
2019-02-24T14:45:09.278Z,35.70
2019-02-24T14:47:43.108Z,35.80
2019-02-24T14:50:17.120Z,35.80
2019-02-24T14:52:51.671Z,35.70
2019-02-24T14:55:24.997Z,35.40
2019-02-24T14:57:59.083Z,35.50
2019-02-24T15:00:32.178Z,36.00
2019-02-24T15:03:06.532Z,36.20
2019-02-24T15:05:40.662Z,36.00
2019-02-24T15:08:14.767Z,35.90
2019-02-24T15:10:49.889Z,35.80
2019-02-24T15:13:24.327Z,35.90
2019-02-24T15:15:57.964Z,35.80
2019-02-24T15:18:33.258Z,36.10
2019-02-24T15:21:08.936Z,36.40
2019-02-24T15:23:43.969Z,36.30
2019-02-24T15:26:17.433Z,36.00
2019-02-24T15:28:54.454Z,36.70
2019-02-24T15:31:30.134Z,36.10
2019-02-24T15:34:05.924Z,36.20
2019-02-24T15:36:41.404Z,35.30
2019-02-24T15:39:16.282Z,35.70
2019-02-24T15:41:51.339Z,36.10
2019-02-24T15:44:24.791Z,36.00
2019-02-24T15:46:58.256Z,35.90
2019-02-24T15:49:32.501Z,36.30
2019-02-24T15:52:09.994Z,36.20
2019-02-24T15:54:41.199Z,36.30
2019-02-24T15:57:13.443Z,37.50
2019-02-24T15:59:45.698Z,38.40
2019-02-24T16:02:22.738Z,39.10
2019-02-24T16:04:56.475Z,39.20
2019-02-24T16:07:28.736Z,39.60
2019-02-24T16:10:01.008Z,39.70
2019-02-24T16:12:34.274Z,40.00
2019-02-24T16:15:11.113Z,40.70
2019-02-24T16:17:44.646Z,41.00
2019-02-24T16:20:22.237Z,42.10
2019-02-24T16:22:55.191Z,41.90
2019-02-24T16:25:27.105Z,43.20
2019-02-24T16:28:00.717Z,43.20
2019-02-24T16:30:32.799Z,42.60
2019-02-24T16:33:10.595Z,43.40
2019-02-24T16:35:41.854Z,43.60
2019-02-24T16:38:17.798Z,43.90
2019-02-24T16:40:50.965Z,43.90
2019-02-24T16:43:26.057Z,45.10
2019-02-24T16:45:58.871Z,45.80
2019-02-24T16:48:30.977Z,46.30
2019-02-24T16:51:06.453Z,47.70
2019-02-24T16:53:38.792Z,48.40
2019-02-24T16:56:11.024Z,49.20
2019-02-24T16:58:44.233Z,48.20
2019-02-24T17:01:17.011Z,48.90
2019-02-24T17:03:49.717Z,50.30
2019-02-24T17:06:23.222Z,51.40
2019-02-24T17:09:00.613Z,52.00
2019-02-24T17:11:30.160Z,53.40
2019-02-24T17:14:02.782Z,54.70
2019-02-24T17:16:35.451Z,54.40
2019-02-24T17:19:07.933Z,54.40
2019-02-24T17:21:42.191Z,54.60
2019-02-24T17:24:15.341Z,57.70
2019-02-24T17:26:47.598Z,56.20
2019-02-24T17:29:19.675Z,54.30
2019-02-24T17:31:51.907Z,53.90
2019-02-24T17:34:24.423Z,55.10
2019-02-24T17:36:58.540Z,56.00
2019-02-24T17:39:31.016Z,57.50
2019-02-24T17:42:03.264Z,57.70
2019-02-24T17:44:37.297Z,57.60
2019-02-24T17:47:09.572Z,56.70
2019-02-24T17:49:41.568Z,57.10
2019-02-24T17:52:14.008Z,57.80
2019-02-24T17:54:46.411Z,58.60
2019-02-24T17:57:19.106Z,59.30
2019-02-24T17:59:51.867Z,59.50
2019-02-24T18:02:24.516Z,59.40
2019-02-24T18:04:59.520Z,60.00
2019-02-24T18:07:31.394Z,60.70
2019-02-24T18:10:04.314Z,60.50
2019-02-24T18:12:36.649Z,60.70
2019-02-24T18:15:10.054Z,62.20
2019-02-24T18:17:42.996Z,62.40
2019-02-24T18:20:17.693Z,61.70
2019-02-24T18:22:50.451Z,61.70
2019-02-24T18:25:23.458Z,61.60
2019-02-24T18:27:58.820Z,61.60
2019-02-24T18:30:31.588Z,61.90
2019-02-24T18:33:06.346Z,62.10
2019-02-24T18:35:40.484Z,62.30
2019-02-24T18:38:14.478Z,62.90
2019-02-24T18:40:48.347Z,61.30
2019-02-24T18:43:23.103Z,60.60
2019-02-24T18:45:57.363Z,60.00
2019-02-24T18:48:29.595Z,60.70
2019-02-24T18:51:03.347Z,60.60
2019-02-24T18:53:36.155Z,61.20
2019-02-24T18:56:08.852Z,62.90
2019-02-24T18:58:41.818Z,63.20
2019-02-24T19:01:14.625Z,63.10
2019-02-24T19:03:47.147Z,63.70
2019-02-24T19:06:23.063Z,64.60
2019-02-24T19:08:57.135Z,63.90
2019-02-24T19:11:30.109Z,63.70
2019-02-24T19:14:04.084Z,64.60
2019-02-24T19:16:39.836Z,66.00
2019-02-24T19:19:13.921Z,65.70
2019-02-24T19:21:46.609Z,64.00
2019-02-24T19:24:19.866Z,63.40
2019-02-24T19:26:51.808Z,63.30
2019-02-24T19:29:26.146Z,64.30
2019-02-24T19:32:00.371Z,64.90
2019-02-24T19:34:32.978Z,65.30
2019-02-24T19:37:06.060Z,65.50
2019-02-24T19:39:38.497Z,65.50
2019-02-24T19:42:11.587Z,65.70
2019-02-24T19:44:44.306Z,65.90
2019-02-24T19:47:18.975Z,66.80
2019-02-24T19:49:51.327Z,67.20
2019-02-24T19:52:23.839Z,66.50
2019-02-24T19:54:56.434Z,66.80
2019-02-24T19:57:28.974Z,67.80
2019-02-24T20:00:02.797Z,67.90
2019-02-24T20:02:36.747Z,68.60
2019-02-24T20:05:09.040Z,69.30
2019-02-24T20:07:41.117Z,69.90
2019-02-24T20:10:15.493Z,69.60
2019-02-24T20:12:48.605Z,69.80
2019-02-24T20:15:22.500Z,70.00
2019-02-24T20:17:54.826Z,70.50
2019-02-24T20:20:27.426Z,71.50
2019-02-24T20:23:01.041Z,71.50
2019-02-24T20:25:34.404Z,71.70
2019-02-24T20:28:06.751Z,71.60
2019-02-24T20:30:39.134Z,70.90
2019-02-24T20:33:11.517Z,71.20
2019-02-24T20:35:43.605Z,72.00
2019-02-24T20:38:15.827Z,71.20
2019-02-24T20:40:48.236Z,70.30
2019-02-24T20:43:21.219Z,70.30
2019-02-24T20:45:53.559Z,70.00
2019-02-24T20:48:25.747Z,70.00
2019-02-24T20:50:58.325Z,70.30
2019-02-24T20:53:30.760Z,69.70
2019-02-24T20:56:04.544Z,70.00
2019-02-24T20:58:37.242Z,70.60
2019-02-24T21:01:12.843Z,70.90
2019-02-24T21:03:45.475Z,70.70
2019-02-24T21:06:20.394Z,70.70
2019-02-24T21:08:52.910Z,70.90
2019-02-24T21:11:25.151Z,70.70
2019-02-24T21:13:57.777Z,70.10
2019-02-24T21:16:33.560Z,69.70
2019-02-24T21:19:07.253Z,68.80
2019-02-24T21:21:45.387Z,69.30
2019-02-24T21:24:19.830Z,69.30
2019-02-24T21:26:52.393Z,70.50
2019-02-24T21:29:25.827Z,70.80
2019-02-24T21:31:58.964Z,71.50
2019-02-24T21:34:38.570Z,71.90
2019-02-24T21:37:11.387Z,72.10
2019-02-24T21:39:43.821Z,72.60
2019-02-24T21:42:16.384Z,73.30
2019-02-24T21:44:48.858Z,73.30
2019-02-24T21:47:21.511Z,73.50
2019-02-24T21:49:54.613Z,74.00
2019-02-24T21:52:27.254Z,74.10
2019-02-24T21:55:01.477Z,74.80
2019-02-24T21:57:34.139Z,74.50
2019-02-24T22:00:09.681Z,74.60
2019-02-24T22:02:42.225Z,75.00
2019-02-24T22:05:14.685Z,75.40
2019-02-24T22:07:46.962Z,75.50
2019-02-24T22:10:20.021Z,75.90
2019-02-24T22:12:55.969Z,76.00
2019-02-24T22:15:30.957Z,76.10
2019-02-24T22:18:03.137Z,76.10
2019-02-24T22:20:34.976Z,76.10
2019-02-24T22:23:07.731Z,76.10
2019-02-24T22:25:41.152Z,76.30
2019-02-24T22:28:13.476Z,76.40
2019-02-24T22:30:45.463Z,76.60
2019-02-24T22:33:17.587Z,76.70
2019-02-24T22:35:49.692Z,77.20
2019-02-24T22:38:21.819Z,78.10
2019-02-24T22:40:56.751Z,78.70
2019-02-24T22:43:30.790Z,79.20
2019-02-24T22:46:04.690Z,79.80
2019-02-24T22:48:38.509Z,80.90
2019-02-24T22:51:11.933Z,81.60
2019-02-24T22:53:45.624Z,81.80
2019-02-24T22:56:19.590Z,82.10
2019-02-24T22:58:54.595Z,82.60
2019-02-24T23:01:37.906Z,82.70
2019-02-24T23:04:15.515Z,82.60
2019-02-24T23:06:50.326Z,82.60
2019-02-24T23:09:24.696Z,82.30
2019-02-24T23:11:58.958Z,81.90
2019-02-24T23:14:32.931Z,81.60
2019-02-24T23:17:06.975Z,81.50
2019-02-24T23:19:42.198Z,82.00
2019-02-24T23:22:16.088Z,82.40
2019-02-24T23:24:49.748Z,82.80
2019-02-24T23:27:23.309Z,82.90
2019-02-24T23:29:57.701Z,82.30
2019-02-24T23:32:31.472Z,82.10
2019-02-24T23:35:07.751Z,82.10
2019-02-24T23:37:42.742Z,82.70
2019-02-24T23:40:16.562Z,82.90
2019-02-24T23:42:50.143Z,82.70
2019-02-24T23:45:24.322Z,82.80
2019-02-24T23:47:57.110Z,82.80
2019-02-24T23:50:32.200Z,82.70
2019-02-24T23:53:05.525Z,82.80
2019-02-24T23:55:38.896Z,83.00
2019-02-24T23:58:12.234Z,83.10
